sensor_id;sensor_type;location;lat;lon;timestamp;temperature;humidity
38860;DHT22;24609;48.316;16.174;2023-02-15T00:01:24;3.00;99.90
38860;DHT22;24609;48.316;16.174;2023-02-15T00:03:50;3.00;99.90
38860;DHT22;24609;48.316;16.174;2023-02-15T00:06:16;3.00;99.90
38860;DHT22;24609;48.316;16.174;2023-02-15T00:08:42;3.00;99.90
38860;DHT22;24609;48.316;16.174;2023-02-15T00:11:13;3.10;99.90
38860;DHT22;24609;48.316;16.174;2023-02-15T00:13:39;3.00;99.90
38860;DHT22;24609;48.316;16.174;2023-02-15T00:16:12;3.00;99.90
38860;DHT22;24609;48.316;16.174;2023-02-15T00:18:41;2.90;99.90
38860;DHT22;24609;48.316;16.174;2023-02-15T00:21:08;2.90;99.90
38860;DHT22;24609;48.316;16.174;2023-02-15T00:23:35;2.90;99.90
38860;DHT22;24609;48.316;16.174;2023-02-15T00:26:11;2.80;1.00
38860;DHT22;24609;48.316;16.174;2023-02-15T00:28:37;2.80;1.00
38860;DHT22;24609;48.316;16.174;2023-02-15T00:31:11;2.80;1.00
38860;DHT22;24609;48.316;16.174;2023-02-15T00:33:38;2.80;1.00
38860;DHT22;24609;48.316;16.174;2023-02-15T00:36:05;2.80;1.00
38860;DHT22;24609;48.316;16.174;2023-02-15T00:38:32;2.80;1.00
38860;DHT22;24609;48.316;16.174;2023-02-15T00:41:00;2.80;1.00
38860;DHT22;24609;48.316;16.174;2023-02-15T00:43:27;2.80;1.00
38860;DHT22;24609;48.316;16.174;2023-02-15T00:45:53;2.90;99.90
38860;DHT22;24609;48.316;16.174;2023-02-15T00:48:19;2.90;99.90
38860;DHT22;24609;48.316;16.174;2023-02-15T00:50:56;2.90;99.90
38860;DHT22;24609;48.316;16.174;2023-02-15T00:53:25;2.90;99.90
38860;DHT22;24609;48.316;16.174;2023-02-15T00:55:51;2.90;99.90
38860;DHT22;24609;48.316;16.174;2023-02-15T00:58:17;2.90;99.90
38860;DHT22;24609;48.316;16.174;2023-02-15T01:00:44;2.80;99.90
38860;DHT22;24609;48.316;16.174;2023-02-15T01:03:11;2.80;1.00
38860;DHT22;24609;48.316;16.174;2023-02-15T01:05:37;2.80;1.00
38860;DHT22;24609;48.316;16.174;2023-02-15T01:08:03;2.80;1.00
38860;DHT22;24609;48.316;16.174;2023-02-15T01:10:29;2.80;1.00
38860;DHT22;24609;48.316;16.174;2023-02-15T01:12:55;2.90;1.00
38860;DHT22;24609;48.316;16.174;2023-02-15T01:15:22;2.90;1.00
38860;DHT22;24609;48.316;16.174;2023-02-15T01:17:48;2.90;1.00
38860;DHT22;24609;48.316;16.174;2023-02-15T01:20:20;2.80;99.90
38860;DHT22;24609;48.316;16.174;2023-02-15T01:22:46;2.80;99.90
38860;DHT22;24609;48.316;16.174;2023-02-15T01:25:18;2.80;1.00
38860;DHT22;24609;48.316;16.174;2023-02-15T01:27:44;2.80;99.90
38860;DHT22;24609;48.316;16.174;2023-02-15T01:30:11;2.80;99.90
38860;DHT22;24609;48.316;16.174;2023-02-15T01:32:36;2.80;99.90
38860;DHT22;24609;48.316;16.174;2023-02-15T01:35:03;2.80;99.90
38860;DHT22;24609;48.316;16.174;2023-02-15T01:37:31;2.80;99.90
38860;DHT22;24609;48.316;16.174;2023-02-15T01:39:57;2.80;99.90
38860;DHT22;24609;48.316;16.174;2023-02-15T01:42:24;2.80;99.90
38860;DHT22;24609;48.316;16.174;2023-02-15T01:44:58;2.80;1.00
38860;DHT22;24609;48.316;16.174;2023-02-15T01:47:43;2.80;1.00
38860;DHT22;24609;48.316;16.174;2023-02-15T01:50:13;2.70;1.00
38860;DHT22;24609;48.316;16.174;2023-02-15T01:55:22;2.70;1.00
38860;DHT22;24609;48.316;16.174;2023-02-15T01:57:50;2.70;1.00
38860;DHT22;24609;48.316;16.174;2023-02-15T02:00:16;2.70;1.00
38860;DHT22;24609;48.316;16.174;2023-02-15T02:02:43;2.70;1.00
38860;DHT22;24609;48.316;16.174;2023-02-15T02:05:10;2.80;1.00
38860;DHT22;24609;48.316;16.174;2023-02-15T02:07:42;2.80;1.00
38860;DHT22;24609;48.316;16.174;2023-02-15T02:10:13;2.80;99.90
38860;DHT22;24609;48.316;16.174;2023-02-15T02:12:40;2.80;1.00
38860;DHT22;24609;48.316;16.174;2023-02-15T02:15:07;2.70;99.90
38860;DHT22;24609;48.316;16.174;2023-02-15T02:17:54;2.70;1.00
38860;DHT22;24609;48.316;16.174;2023-02-15T02:29:41;2.80;1.00
38860;DHT22;24609;48.316;16.174;2023-02-15T02:40:21;2.60;1.00
38860;DHT22;24609;48.316;16.174;2023-02-15T02:43:46;2.60;1.00
38860;DHT22;24609;48.316;16.174;2023-02-15T02:46:13;2.50;1.00
38860;DHT22;24609;48.316;16.174;2023-02-15T02:48:41;2.70;1.00
38860;DHT22;24609;48.316;16.174;2023-02-15T02:51:06;2.80;99.90
38860;DHT22;24609;48.316;16.174;2023-02-15T02:53:32;2.70;99.90
38860;DHT22;24609;48.316;16.174;2023-02-15T02:56:12;2.70;99.90
38860;DHT22;24609;48.316;16.174;2023-02-15T02:58:49;2.70;99.90
38860;DHT22;24609;48.316;16.174;2023-02-15T03:01:24;2.70;99.90
38860;DHT22;24609;48.316;16.174;2023-02-15T03:03:54;2.60;99.90
38860;DHT22;24609;48.316;16.174;2023-02-15T03:07:00;2.60;1.00
38860;DHT22;24609;48.316;16.174;2023-02-15T03:09:38;2.70;99.90
38860;DHT22;24609;48.316;16.174;2023-02-15T03:12:28;2.70;99.90
38860;DHT22;24609;48.316;16.174;2023-02-15T03:15:07;2.70;99.90
38860;DHT22;24609;48.316;16.174;2023-02-15T03:17:40;2.60;99.90
38860;DHT22;24609;48.316;16.174;2023-02-15T03:20:22;2.60;1.00
38860;DHT22;24609;48.316;16.174;2023-02-15T03:22:59;2.50;1.00
38860;DHT22;24609;48.316;16.174;2023-02-15T03:25:39;2.40;1.00
38860;DHT22;24609;48.316;16.174;2023-02-15T03:28:15;2.30;1.00
38860;DHT22;24609;48.316;16.174;2023-02-15T03:30:45;2.30;1.00
38860;DHT22;24609;48.316;16.174;2023-02-15T03:33:13;2.30;1.00
38860;DHT22;24609;48.316;16.174;2023-02-15T03:35:52;2.40;1.00
38860;DHT22;24609;48.316;16.174;2023-02-15T03:38:26;2.40;1.00
38860;DHT22;24609;48.316;16.174;2023-02-15T03:40:56;2.40;1.00
38860;DHT22;24609;48.316;16.174;2023-02-15T03:46:40;2.40;1.00
38860;DHT22;24609;48.316;16.174;2023-02-15T03:49:11;2.40;1.00
38860;DHT22;24609;48.316;16.174;2023-02-15T03:51:40;2.50;1.00
38860;DHT22;24609;48.316;16.174;2023-02-15T03:54:15;2.50;99.90
38860;DHT22;24609;48.316;16.174;2023-02-15T03:57:02;2.60;99.90
38860;DHT22;24609;48.316;16.174;2023-02-15T03:59:47;2.60;99.90
38860;DHT22;24609;48.316;16.174;2023-02-15T04:02:39;2.60;99.90
38860;DHT22;24609;48.316;16.174;2023-02-15T04:05:06;2.60;99.90
38860;DHT22;24609;48.316;16.174;2023-02-15T04:07:32;2.60;99.90
38860;DHT22;24609;48.316;16.174;2023-02-15T04:09:58;2.60;99.90
38860;DHT22;24609;48.316;16.174;2023-02-15T04:12:50;2.60;99.90
38860;DHT22;24609;48.316;16.174;2023-02-15T04:15:15;2.50;99.90
38860;DHT22;24609;48.316;16.174;2023-02-15T04:18:02;2.60;99.90
38860;DHT22;24609;48.316;16.174;2023-02-15T04:20:28;2.60;99.90
38860;DHT22;24609;48.316;16.174;2023-02-15T04:23:12;2.60;99.90
38860;DHT22;24609;48.316;16.174;2023-02-15T04:25:56;2.60;99.90
38860;DHT22;24609;48.316;16.174;2023-02-15T04:28:22;2.50;99.90
38860;DHT22;24609;48.316;16.174;2023-02-15T04:30:47;2.50;99.90
38860;DHT22;24609;48.316;16.174;2023-02-15T04:33:13;2.50;99.90
38860;DHT22;24609;48.316;16.174;2023-02-15T04:35:39;2.60;99.90
38860;DHT22;24609;48.316;16.174;2023-02-15T04:38:04;2.60;99.90
38860;DHT22;24609;48.316;16.174;2023-02-15T04:40:30;2.60;99.90
38860;DHT22;24609;48.316;16.174;2023-02-15T04:42:56;2.60;99.90
38860;DHT22;24609;48.316;16.174;2023-02-15T04:45:21;2.60;99.90
38860;DHT22;24609;48.316;16.174;2023-02-15T04:47:47;2.60;99.90
38860;DHT22;24609;48.316;16.174;2023-02-15T04:50:13;2.50;99.90
38860;DHT22;24609;48.316;16.174;2023-02-15T04:52:38;2.50;99.90
38860;DHT22;24609;48.316;16.174;2023-02-15T04:55:04;2.60;99.90
38860;DHT22;24609;48.316;16.174;2023-02-15T04:57:30;2.60;99.90
38860;DHT22;24609;48.316;16.174;2023-02-15T04:59:56;2.60;99.90
38860;DHT22;24609;48.316;16.174;2023-02-15T05:02:23;2.60;99.90
38860;DHT22;24609;48.316;16.174;2023-02-15T05:04:49;2.60;98.30
38860;DHT22;24609;48.316;16.174;2023-02-15T05:07:14;2.50;99.90
38860;DHT22;24609;48.316;16.174;2023-02-15T05:09:40;2.50;97.50
38860;DHT22;24609;48.316;16.174;2023-02-15T05:12:06;2.50;92.40
38860;DHT22;24609;48.316;16.174;2023-02-15T05:14:31;2.50;65.80
38860;DHT22;24609;48.316;16.174;2023-02-15T05:16:57;2.50;99.90
38860;DHT22;24609;48.316;16.174;2023-02-15T05:19:26;2.40;46.70
38860;DHT22;24609;48.316;16.174;2023-02-15T05:21:51;2.40;52.50
38860;DHT22;24609;48.316;16.174;2023-02-15T05:24:17;2.40;99.90
38860;DHT22;24609;48.316;16.174;2023-02-15T05:27:01;2.40;35.40
38860;DHT22;24609;48.316;16.174;2023-02-15T05:29:45;2.40;47.10
38860;DHT22;24609;48.316;16.174;2023-02-15T05:32:13;2.40;93.10
38860;DHT22;24609;48.316;16.174;2023-02-15T05:34:38;2.40;39.00
38860;DHT22;24609;48.316;16.174;2023-02-15T05:37:04;2.40;92.50
38860;DHT22;24609;48.316;16.174;2023-02-15T05:39:30;2.30;45.60
38860;DHT22;24609;48.316;16.174;2023-02-15T05:42:01;2.30;51.10
38860;DHT22;24609;48.316;16.174;2023-02-15T05:44:27;2.30;99.90
38860;DHT22;24609;48.316;16.174;2023-02-15T05:46:52;2.40;97.30
38860;DHT22;24609;48.316;16.174;2023-02-15T05:49:18;2.40;1.00
38860;DHT22;24609;48.316;16.174;2023-02-15T05:51:44;2.40;1.00
38860;DHT22;24609;48.316;16.174;2023-02-15T05:54:09;2.40;1.00
38860;DHT22;24609;48.316;16.174;2023-02-15T05:56:35;2.40;1.00
38860;DHT22;24609;48.316;16.174;2023-02-15T05:59:00;2.40;1.00
38860;DHT22;24609;48.316;16.174;2023-02-15T06:01:26;2.40;1.00
38860;DHT22;24609;48.316;16.174;2023-02-15T06:03:52;2.50;1.00
38860;DHT22;24609;48.316;16.174;2023-02-15T06:06:18;2.40;1.00
38860;DHT22;24609;48.316;16.174;2023-02-15T06:08:43;2.50;1.00
38860;DHT22;24609;48.316;16.174;2023-02-15T06:11:09;2.50;7.40
38860;DHT22;24609;48.316;16.174;2023-02-15T06:13:35;2.50;99.90
38860;DHT22;24609;48.316;16.174;2023-02-15T06:16:01;2.60;99.90
38860;DHT22;24609;48.316;16.174;2023-02-15T06:18:26;2.60;19.70
38860;DHT22;24609;48.316;16.174;2023-02-15T06:20:52;2.60;34.10
38860;DHT22;24609;48.316;16.174;2023-02-15T06:23:18;2.70;1.00
38860;DHT22;24609;48.316;16.174;2023-02-15T06:25:45;2.70;1.00
38860;DHT22;24609;48.316;16.174;2023-02-15T06:28:11;2.70;1.00
38860;DHT22;24609;48.316;16.174;2023-02-15T06:30:37;2.80;1.00
38860;DHT22;24609;48.316;16.174;2023-02-15T06:33:02;2.80;1.00
38860;DHT22;24609;48.316;16.174;2023-02-15T06:35:28;2.70;1.00
38860;DHT22;24609;48.316;16.174;2023-02-15T06:37:54;2.70;1.00
38860;DHT22;24609;48.316;16.174;2023-02-15T06:40:19;2.60;1.00
38860;DHT22;24609;48.316;16.174;2023-02-15T06:42:45;2.60;1.00
38860;DHT22;24609;48.316;16.174;2023-02-15T06:45:11;2.60;1.00
38860;DHT22;24609;48.316;16.174;2023-02-15T06:47:37;2.70;1.00
38860;DHT22;24609;48.316;16.174;2023-02-15T06:50:05;2.60;99.90
38860;DHT22;24609;48.316;16.174;2023-02-15T06:52:30;2.70;1.00
38860;DHT22;24609;48.316;16.174;2023-02-15T06:54:56;2.80;1.00
38860;DHT22;24609;48.316;16.174;2023-02-15T06:57:22;2.80;1.00
38860;DHT22;24609;48.316;16.174;2023-02-15T06:59:47;2.90;1.00
38860;DHT22;24609;48.316;16.174;2023-02-15T07:02:14;3.00;99.90
38860;DHT22;24609;48.316;16.174;2023-02-15T07:04:39;3.10;99.90
38860;DHT22;24609;48.316;16.174;2023-02-15T07:07:09;3.10;99.90
38860;DHT22;24609;48.316;16.174;2023-02-15T07:09:35;3.10;99.90
38860;DHT22;24609;48.316;16.174;2023-02-15T07:12:02;3.10;1.00
38860;DHT22;24609;48.316;16.174;2023-02-15T07:14:46;3.10;1.00
38860;DHT22;24609;48.316;16.174;2023-02-15T07:17:12;3.10;1.00
38860;DHT22;24609;48.316;16.174;2023-02-15T07:19:37;3.30;1.00
38860;DHT22;24609;48.316;16.174;2023-02-15T07:22:03;3.50;20.90
38860;DHT22;24609;48.316;16.174;2023-02-15T07:24:30;3.80;1.00
38860;DHT22;24609;48.316;16.174;2023-02-15T07:26:56;3.90;99.90
38860;DHT22;24609;48.316;16.174;2023-02-15T07:29:23;3.80;99.90
38860;DHT22;24609;48.316;16.174;2023-02-15T07:31:49;3.90;17.50
38860;DHT22;24609;48.316;16.174;2023-02-15T07:34:14;3.80;99.90
38860;DHT22;24609;48.316;16.174;2023-02-15T07:36:41;3.80;1.00
38860;DHT22;24609;48.316;16.174;2023-02-15T07:39:07;3.90;1.00
38860;DHT22;24609;48.316;16.174;2023-02-15T07:41:33;3.70;1.00
38860;DHT22;24609;48.316;16.174;2023-02-15T07:43:58;3.70;1.00
38860;DHT22;24609;48.316;16.174;2023-02-15T07:46:24;3.70;1.00
38860;DHT22;24609;48.316;16.174;2023-02-15T07:48:50;3.70;1.00
38860;DHT22;24609;48.316;16.174;2023-02-15T07:51:15;3.70;1.00
38860;DHT22;24609;48.316;16.174;2023-02-15T07:53:41;3.80;1.00
38860;DHT22;24609;48.316;16.174;2023-02-15T07:56:11;4.00;1.00
38860;DHT22;24609;48.316;16.174;2023-02-15T07:58:37;4.10;99.90
38860;DHT22;24609;48.316;16.174;2023-02-15T08:01:34;4.40;99.90
38860;DHT22;24609;48.316;16.174;2023-02-15T08:04:01;4.70;1.00
38860;DHT22;24609;48.316;16.174;2023-02-15T08:06:29;4.60;1.00
38860;DHT22;24609;48.316;16.174;2023-02-15T08:08:56;4.70;1.00
38860;DHT22;24609;48.316;16.174;2023-02-15T08:11:27;4.80;99.90
38860;DHT22;24609;48.316;16.174;2023-02-15T08:14:17;4.70;99.90
38860;DHT22;24609;48.316;16.174;2023-02-15T08:16:46;4.70;99.90
38860;DHT22;24609;48.316;16.174;2023-02-15T08:19:29;5.00;99.90
38860;DHT22;24609;48.316;16.174;2023-02-15T08:22:00;5.20;20.00
38860;DHT22;24609;48.316;16.174;2023-02-15T08:24:28;5.30;1.00
38860;DHT22;24609;48.316;16.174;2023-02-15T08:26:54;5.30;1.00
38860;DHT22;24609;48.316;16.174;2023-02-15T08:29:23;5.10;99.90
38860;DHT22;24609;48.316;16.174;2023-02-15T08:31:52;5.10;1.00
38860;DHT22;24609;48.316;16.174;2023-02-15T08:34:19;5.10;99.90
38860;DHT22;24609;48.316;16.174;2023-02-15T08:36:45;5.00;99.90
38860;DHT22;24609;48.316;16.174;2023-02-15T08:39:12;5.10;99.90
38860;DHT22;24609;48.316;16.174;2023-02-15T08:41:38;5.00;99.90
38860;DHT22;24609;48.316;16.174;2023-02-15T08:44:06;5.00;99.90
38860;DHT22;24609;48.316;16.174;2023-02-15T08:46:34;4.90;99.90
38860;DHT22;24609;48.316;16.174;2023-02-15T08:49:01;5.10;99.90
38860;DHT22;24609;48.316;16.174;2023-02-15T08:51:29;5.70;99.90
38860;DHT22;24609;48.316;16.174;2023-02-15T08:53:58;5.90;1.00
38860;DHT22;24609;48.316;16.174;2023-02-15T08:56:27;6.10;99.90
38860;DHT22;24609;48.316;16.174;2023-02-15T08:58:53;6.20;99.90
38860;DHT22;24609;48.316;16.174;2023-02-15T09:01:22;6.10;75.90
38860;DHT22;24609;48.316;16.174;2023-02-15T09:03:49;6.00;99.90
38860;DHT22;24609;48.316;16.174;2023-02-15T09:06:18;6.00;53.10
38860;DHT22;24609;48.316;16.174;2023-02-15T09:08:43;5.40;99.90
38860;DHT22;24609;48.316;16.174;2023-02-15T09:11:20;4.90;99.90
38860;DHT22;24609;48.316;16.174;2023-02-15T09:13:56;4.80;1.00
38860;DHT22;24609;48.316;16.174;2023-02-15T09:16:23;4.70;1.00
38860;DHT22;24609;48.316;16.174;2023-02-15T09:18:50;4.80;1.00
38860;DHT22;24609;48.316;16.174;2023-02-15T09:21:18;4.60;99.90
38860;DHT22;24609;48.316;16.174;2023-02-15T09:23:45;5.10;24.20
38860;DHT22;24609;48.316;16.174;2023-02-15T09:26:16;5.30;99.90
38860;DHT22;24609;48.316;16.174;2023-02-15T09:28:42;5.50;1.00
38860;DHT22;24609;48.316;16.174;2023-02-15T09:31:13;5.70;1.00
38860;DHT22;24609;48.316;16.174;2023-02-15T09:33:41;5.90;1.00
38860;DHT22;24609;48.316;16.174;2023-02-15T09:36:25;6.20;99.90
38860;DHT22;24609;48.316;16.174;2023-02-15T09:39:00;6.10;99.90
38860;DHT22;24609;48.316;16.174;2023-02-15T09:47:44;5.90;99.90
38860;DHT22;24609;48.316;16.174;2023-02-15T09:58:09;7.10;99.90
38860;DHT22;24609;48.316;16.174;2023-02-15T10:04:13;7.30;99.90
38860;DHT22;24609;48.316;16.174;2023-02-15T10:07:24;6.90;99.90
38860;DHT22;24609;48.316;16.174;2023-02-15T10:10:00;6.70;99.90
38860;DHT22;24609;48.316;16.174;2023-02-15T10:21:21;7.20;99.90
38860;DHT22;24609;48.316;16.174;2023-02-15T10:26:47;7.50;87.80
38860;DHT22;24609;48.316;16.174;2023-02-15T10:29:37;7.50;1.00
38860;DHT22;24609;48.316;16.174;2023-02-15T10:34:37;9.00;99.90
38860;DHT22;24609;48.316;16.174;2023-02-15T10:43:10;13.30;99.90
38860;DHT22;24609;48.316;16.174;2023-02-15T10:52:03;15.20;48.40
38860;DHT22;24609;48.316;16.174;2023-02-15T10:54:20;15.00;99.90
38860;DHT22;24609;48.316;16.174;2023-02-15T11:05:42;19.20;24.20
38860;DHT22;24609;48.316;16.174;2023-02-15T11:08:10;20.50;1.00
38860;DHT22;24609;48.316;16.174;2023-02-15T11:10:44;22.60;1.00
38860;DHT22;24609;48.316;16.174;2023-02-15T11:13:17;21.30;1.00
38860;DHT22;24609;48.316;16.174;2023-02-15T11:16:02;18.00;1.00
38860;DHT22;24609;48.316;16.174;2023-02-15T11:21:03;14.10;1.00
38860;DHT22;24609;48.316;16.174;2023-02-15T11:23:32;12.90;1.00
38860;DHT22;24609;48.316;16.174;2023-02-15T11:26:03;12.50;1.00
38860;DHT22;24609;48.316;16.174;2023-02-15T11:29:31;13.10;1.00
38860;DHT22;24609;48.316;16.174;2023-02-15T11:31:46;15.40;1.00
38860;DHT22;24609;48.316;16.174;2023-02-15T11:34:34;16.50;1.00
38860;DHT22;24609;48.316;16.174;2023-02-15T11:37:05;19.40;1.00
38860;DHT22;24609;48.316;16.174;2023-02-15T11:39:33;20.10;1.00
38860;DHT22;24609;48.316;16.174;2023-02-15T11:42:04;21.90;1.00
38860;DHT22;24609;48.316;16.174;2023-02-15T11:44:39;18.90;1.00
38860;DHT22;24609;48.316;16.174;2023-02-15T11:47:13;17.30;1.00
38860;DHT22;24609;48.316;16.174;2023-02-15T11:49:39;15.60;1.00
38860;DHT22;24609;48.316;16.174;2023-02-15T11:52:15;17.90;1.00
38860;DHT22;24609;48.316;16.174;2023-02-15T11:54:43;18.70;1.00
38860;DHT22;24609;48.316;16.174;2023-02-15T12:00:06;19.20;1.00
38860;DHT22;24609;48.316;16.174;2023-02-15T12:02:37;20.00;1.00
38860;DHT22;24609;48.316;16.174;2023-02-15T12:05:09;18.50;1.00
38860;DHT22;24609;48.316;16.174;2023-02-15T12:07:42;17.50;1.00
38860;DHT22;24609;48.316;16.174;2023-02-15T12:10:25;18.60;1.00
38860;DHT22;24609;48.316;16.174;2023-02-15T12:13:17;16.80;1.00
38860;DHT22;24609;48.316;16.174;2023-02-15T12:15:51;18.70;1.00
38860;DHT22;24609;48.316;16.174;2023-02-15T12:18:21;20.10;1.00
38860;DHT22;24609;48.316;16.174;2023-02-15T12:20:50;21.50;1.00
38860;DHT22;24609;48.316;16.174;2023-02-15T12:23:17;22.40;1.00
38860;DHT22;24609;48.316;16.174;2023-02-15T12:25:52;20.60;1.00
38860;DHT22;24609;48.316;16.174;2023-02-15T12:30:52;13.80;1.00
38860;DHT22;24609;48.316;16.174;2023-02-15T12:33:34;11.90;1.00
38860;DHT22;24609;48.316;16.174;2023-02-15T12:36:12;11.20;1.00
38860;DHT22;24609;48.316;16.174;2023-02-15T12:38:40;10.70;1.00
38860;DHT22;24609;48.316;16.174;2023-02-15T12:41:23;9.70;1.00
38860;DHT22;24609;48.316;16.174;2023-02-15T12:44:09;9.10;1.00
38860;DHT22;24609;48.316;16.174;2023-02-15T12:46:40;8.70;38.70
38860;DHT22;24609;48.316;16.174;2023-02-15T12:49:27;8.20;99.90
38860;DHT22;24609;48.316;16.174;2023-02-15T12:51:58;8.20;99.90
38860;DHT22;24609;48.316;16.174;2023-02-15T12:54:29;7.80;99.90
38860;DHT22;24609;48.316;16.174;2023-02-15T12:56:55;8.10;99.90
38860;DHT22;24609;48.316;16.174;2023-02-15T12:59:23;8.00;99.90
38860;DHT22;24609;48.316;16.174;2023-02-15T13:01:49;8.10;1.00
38860;DHT22;24609;48.316;16.174;2023-02-15T13:06:50;7.90;1.00
38860;DHT22;24609;48.316;16.174;2023-02-15T13:11:57;8.10;1.00
38860;DHT22;24609;48.316;16.174;2023-02-15T13:14:34;8.10;1.00
38860;DHT22;24609;48.316;16.174;2023-02-15T13:17:03;7.90;1.00
38860;DHT22;24609;48.316;16.174;2023-02-15T13:19:31;8.10;6.40
38860;DHT22;24609;48.316;16.174;2023-02-15T13:21:58;8.10;4.00
38860;DHT22;24609;48.316;16.174;2023-02-15T13:24:32;8.00;1.00
38860;DHT22;24609;48.316;16.174;2023-02-15T13:26:59;7.70;40.80
38860;DHT22;24609;48.316;16.174;2023-02-15T13:29:28;7.60;93.70
38860;DHT22;24609;48.316;16.174;2023-02-15T13:31:55;7.80;95.50
38860;DHT22;24609;48.316;16.174;2023-02-15T13:34:29;7.80;94.90
38860;DHT22;24609;48.316;16.174;2023-02-15T13:37:10;7.80;99.90
38860;DHT22;24609;48.316;16.174;2023-02-15T13:40:10;7.80;99.90
38860;DHT22;24609;48.316;16.174;2023-02-15T13:51:46;7.40;99.90
38860;DHT22;24609;48.316;16.174;2023-02-15T13:54:29;7.20;99.90
38860;DHT22;24609;48.316;16.174;2023-02-15T14:16:39;7.20;99.90
38860;DHT22;24609;48.316;16.174;2023-02-15T14:21:43;7.20;99.90
38860;DHT22;24609;48.316;16.174;2023-02-15T14:28:00;7.00;1.00
38860;DHT22;24609;48.316;16.174;2023-02-15T14:30:12;7.00;1.00
38860;DHT22;24609;48.316;16.174;2023-02-15T14:32:42;6.90;1.00
38860;DHT22;24609;48.316;16.174;2023-02-15T14:35:16;6.80;99.90
38860;DHT22;24609;48.316;16.174;2023-02-15T14:48:57;6.60;1.00
38860;DHT22;24609;48.316;16.174;2023-02-15T15:00:00;6.40;90.50
38860;DHT22;24609;48.316;16.174;2023-02-15T15:05:14;6.30;99.90
38860;DHT22;24609;48.316;16.174;2023-02-15T15:07:46;6.30;1.00
38860;DHT22;24609;48.316;16.174;2023-02-15T15:12:43;6.30;99.90
38860;DHT22;24609;48.316;16.174;2023-02-15T15:20:41;5.90;99.90
38860;DHT22;24609;48.316;16.174;2023-02-15T15:25:47;5.80;99.90
38860;DHT22;24609;48.316;16.174;2023-02-15T15:31:15;5.50;1.00
38860;DHT22;24609;48.316;16.174;2023-02-15T15:44:58;5.00;1.00
38860;DHT22;24609;48.316;16.174;2023-02-15T15:50:15;4.70;1.00
38860;DHT22;24609;48.316;16.174;2023-02-15T15:52:53;4.60;1.00
38860;DHT22;24609;48.316;16.174;2023-02-15T15:55:23;4.50;53.40
38860;DHT22;24609;48.316;16.174;2023-02-15T15:57:55;4.40;99.90
38860;DHT22;24609;48.316;16.174;2023-02-15T16:03:36;4.20;1.00
38860;DHT22;24609;48.316;16.174;2023-02-15T16:06:02;4.10;15.40
38860;DHT22;24609;48.316;16.174;2023-02-15T16:08:38;4.00;99.90
38860;DHT22;24609;48.316;16.174;2023-02-15T16:11:31;3.80;99.90
38860;DHT22;24609;48.316;16.174;2023-02-15T16:13:57;3.70;1.00
38860;DHT22;24609;48.316;16.174;2023-02-15T16:16:25;3.50;1.00
38860;DHT22;24609;48.316;16.174;2023-02-15T16:18:54;3.30;85.80
38860;DHT22;24609;48.316;16.174;2023-02-15T16:21:25;3.20;99.90
38860;DHT22;24609;48.316;16.174;2023-02-15T16:26:59;2.90;99.90
38860;DHT22;24609;48.316;16.174;2023-02-15T16:29:32;2.70;99.90
38860;DHT22;24609;48.316;16.174;2023-02-15T16:34:25;2.30;99.90
38860;DHT22;24609;48.316;16.174;2023-02-15T16:37:15;2.30;1.00
38860;DHT22;24609;48.316;16.174;2023-02-15T16:39:42;2.10;1.00
38860;DHT22;24609;48.316;16.174;2023-02-15T16:42:10;2.10;1.00
38860;DHT22;24609;48.316;16.174;2023-02-15T16:44:37;2.10;1.00
38860;DHT22;24609;48.316;16.174;2023-02-15T16:47:02;2.00;1.00
38860;DHT22;24609;48.316;16.174;2023-02-15T16:49:29;2.00;1.00
38860;DHT22;24609;48.316;16.174;2023-02-15T16:52:02;1.90;1.00
38860;DHT22;24609;48.316;16.174;2023-02-15T16:54:29;1.70;1.00
38860;DHT22;24609;48.316;16.174;2023-02-15T16:56:57;1.60;1.00
38860;DHT22;24609;48.316;16.174;2023-02-15T17:01:58;1.40;1.00
38860;DHT22;24609;48.316;16.174;2023-02-15T17:04:29;1.20;12.10
38860;DHT22;24609;48.316;16.174;2023-02-15T17:09:29;1.00;19.40
38860;DHT22;24609;48.316;16.174;2023-02-15T17:11:54;1.20;99.90
38860;DHT22;24609;48.316;16.174;2023-02-15T17:14:26;1.40;99.90
38860;DHT22;24609;48.316;16.174;2023-02-15T17:19:31;1.30;99.90
38860;DHT22;24609;48.316;16.174;2023-02-15T17:22:03;1.20;99.90
38860;DHT22;24609;48.316;16.174;2023-02-15T17:27:02;0.90;99.90
38860;DHT22;24609;48.316;16.174;2023-02-15T17:29:31;0.70;99.90
38860;DHT22;24609;48.316;16.174;2023-02-15T17:31:57;0.80;99.90
38860;DHT22;24609;48.316;16.174;2023-02-15T17:37:27;0.90;99.90
38860;DHT22;24609;48.316;16.174;2023-02-15T17:39:53;1.20;99.90
38860;DHT22;24609;48.316;16.174;2023-02-15T17:42:19;1.20;99.90
38860;DHT22;24609;48.316;16.174;2023-02-15T17:44:45;1.20;99.90
38860;DHT22;24609;48.316;16.174;2023-02-15T17:47:22;1.30;99.90
38860;DHT22;24609;48.316;16.174;2023-02-15T17:49:49;1.20;99.90
38860;DHT22;24609;48.316;16.174;2023-02-15T17:52:16;1.30;99.90
38860;DHT22;24609;48.316;16.174;2023-02-15T17:54:43;1.20;99.90
38860;DHT22;24609;48.316;16.174;2023-02-15T17:57:28;1.20;99.90
38860;DHT22;24609;48.316;16.174;2023-02-15T17:59:54;1.20;99.90
38860;DHT22;24609;48.316;16.174;2023-02-15T18:02:38;1.20;99.90
38860;DHT22;24609;48.316;16.174;2023-02-15T18:05:23;1.10;99.90
38860;DHT22;24609;48.316;16.174;2023-02-15T18:08:13;1.10;99.90
38860;DHT22;24609;48.316;16.174;2023-02-15T18:10:57;1.00;99.90
38860;DHT22;24609;48.316;16.174;2023-02-15T18:13:41;0.90;99.90
38860;DHT22;24609;48.316;16.174;2023-02-15T18:16:12;0.80;99.90
38860;DHT22;24609;48.316;16.174;2023-02-15T18:18:38;0.80;99.90
38860;DHT22;24609;48.316;16.174;2023-02-15T18:21:04;0.90;99.90
38860;DHT22;24609;48.316;16.174;2023-02-15T18:23:32;0.90;99.90
38860;DHT22;24609;48.316;16.174;2023-02-15T18:26:11;0.90;99.90
38860;DHT22;24609;48.316;16.174;2023-02-15T18:28:37;0.90;99.90
38860;DHT22;24609;48.316;16.174;2023-02-15T18:31:03;0.80;99.90
38860;DHT22;24609;48.316;16.174;2023-02-15T18:33:39;0.70;99.90
38860;DHT22;24609;48.316;16.174;2023-02-15T18:36:07;0.60;99.90
38860;DHT22;24609;48.316;16.174;2023-02-15T18:38:36;0.60;99.90
38860;DHT22;24609;48.316;16.174;2023-02-15T18:41:02;0.40;99.90
38860;DHT22;24609;48.316;16.174;2023-02-15T18:43:29;0.30;99.90
38860;DHT22;24609;48.316;16.174;2023-02-15T18:45:54;0.10;99.90
38860;DHT22;24609;48.316;16.174;2023-02-15T18:48:20;0.00;99.90
38860;DHT22;24609;48.316;16.174;2023-02-15T18:50:46;-0.20;99.90
38860;DHT22;24609;48.316;16.174;2023-02-15T18:53:18;-0.40;99.90
38860;DHT22;24609;48.316;16.174;2023-02-15T18:55:44;-0.50;99.90
38860;DHT22;24609;48.316;16.174;2023-02-15T18:58:19;-0.60;99.90
38860;DHT22;24609;48.316;16.174;2023-02-15T19:00:45;-0.70;99.90
38860;DHT22;24609;48.316;16.174;2023-02-15T19:03:14;-0.70;99.90
38860;DHT22;24609;48.316;16.174;2023-02-15T19:05:42;-0.60;99.90
38860;DHT22;24609;48.316;16.174;2023-02-15T19:08:16;-0.70;99.90
38860;DHT22;24609;48.316;16.174;2023-02-15T19:10:41;-0.60;99.90
38860;DHT22;24609;48.316;16.174;2023-02-15T19:13:11;-0.60;99.90